Time;durP1;ratioP1;P1;durP2;ratioP2;P2;SDS_P1;SDS_P2;PMS_P1;PMS_P2;Temp;Humidity;BMP_temperature;BMP_pressure;BME280_temperature;BME280_humidity;BME280_pressure;Samples;Min_cycle;Max_cycle;Signal;HPM_P1;HPM_P2
2023/06/06 00:00:19;;;;;;;55.80;24.30;;;;;;;12.05;100.00;99866.52;106254;1248;68470;-69
2023/06/06 00:02:46;;;;;;;60.00;28.80;;;;;;;11.32;100.00;99863.88;106317;1248;71325;-73
2023/06/06 00:05:13;;;;;;;130.40;51.70;;;;;;;11.32;100.00;99859.89;106242;1253;61242;-80
2023/06/06 00:07:42;;;;;;;70.00;33.90;;;;;;;10.66;100.00;99858.18;106112;1249;61275;-70
2023/06/06 00:10:11;;;;;;;69.00;31.50;;;;;;;10.52;100.00;99859.65;106184;1247;75027;-72
2023/06/06 00:12:38;;;;;;;54.60;25.70;;;;;;;10.63;100.00;99861.24;106233;1248;68718;-72
2023/06/06 00:15:05;;;;;;;49.80;28.00;;;;;;;10.49;100.00;99856.70;106250;1248;71159;-73
2023/06/06 00:17:33;;;;;;;74.10;36.20;;;;;;;10.30;100.00;99855.66;106140;1257;61868;-71
2023/06/06 00:20:01;;;;;;;74.20;36.00;;;;;;;10.43;100.00;99856.20;106076;1257;61331;-73
2023/06/06 00:22:28;;;;;;;;;;;;;;;10.50;100.00;99856.54;106303;1255;74411;-75
2023/06/06 00:24:55;;;;;;;55.90;27.10;;;;;;;10.25;100.00;99852.66;106273;1248;68304;-71
2023/06/06 00:27:21;;;;;;;97.60;39.00;;;;;;;10.64;100.00;99851.38;106222;1249;72350;-70
2023/06/06 00:29:49;;;;;;;73.20;36.00;;;;;;;10.95;100.00;99850.86;106239;1248;61901;-69
2023/06/06 00:32:15;;;;;;;66.70;34.40;;;;;;;11.14;100.00;99848.17;106088;1256;61445;-71
2023/06/06 00:34:44;;;;;;;62.30;30.00;;;;;;;11.20;100.00;99846.08;106240;1252;73201;-71
2023/06/06 00:37:11;;;;;;;68.80;32.40;;;;;;;10.75;100.00;99842.04;106325;1254;68646;-70
2023/06/06 00:39:38;;;;;;;67.90;33.40;;;;;;;10.40;100.00;99840.66;106239;1254;72523;-71
2023/06/06 00:42:08;;;;;;;70.90;33.90;;;;;;;10.12;100.00;99839.36;106315;1248;61892;-75
2023/06/06 00:44:36;;;;;;;64.40;31.90;;;;;;;10.04;100.00;99841.42;106304;1248;61246;-70
2023/06/06 00:47:02;;;;;;;71.40;32.70;;;;;;;10.25;100.00;99841.94;106059;1248;73399;-72
2023/06/06 00:49:31;;;;;;;69.60;36.20;;;;;;;10.13;100.00;99844.05;106101;1248;68611;-72
2023/06/06 00:51:58;;;;;;;48.20;29.80;;;;;;;10.05;100.00;99842.31;106350;1254;72463;-71
2023/06/06 00:54:25;;;;;;;54.30;29.30;;;;;;;10.12;100.00;99844.23;106031;1254;61260;-71
2023/06/06 00:56:52;;;;;;;50.00;27.60;;;;;;;11.02;100.00;99849.11;106072;1248;61214;-70
2023/06/06 00:59:18;;;;;;;44.10;25.00;;;;;;;10.40;100.00;99851.25;106116;1248;74325;-70
2023/06/06 01:01:48;;;;;;;37.20;20.70;;;;;;;9.87;100.00;99846.98;106310;1254;68355;-70
2023/06/06 01:04:17;;;;;;;36.90;19.70;;;;;;;9.83;100.00;99849.33;106154;1254;72484;-73
2023/06/06 01:06:44;;;;;;;46.60;24.00;;;;;;;9.78;100.00;99845.65;106056;1253;61601;-71
2023/06/06 01:09:13;;;;;;;40.80;22.50;;;;;;;9.84;100.00;99847.09;106019;1252;61328;-73
2023/06/06 01:11:51;;;;;;;30.60;17.50;;;;;;;9.74;100.00;99848.30;106195;1251;74581;-73
2023/06/06 01:14:45;;;;;;;30.70;13.70;;;;;;;10.15;100.00;99851.50;106132;1257;68496;-70
2023/06/06 01:17:12;;;;;;;36.90;16.90;;;;;;;9.73;100.00;99853.92;106124;1251;72891;-78
2023/06/06 01:19:39;;;;;;;31.50;17.20;;;;;;;9.75;100.00;99853.66;106057;1254;61991;-73
2023/06/06 01:22:06;;;;;;;26.00;15.80;;;;;;;10.63;100.00;99853.22;106084;1256;61509;-73
2023/06/06 01:24:35;;;;;;;32.80;17.50;;;;;;;10.10;100.00;99855.19;106273;1252;74563;-71
2023/06/06 01:27:03;;;;;;;27.40;15.50;;;;;;;9.53;100.00;99848.30;106325;1248;68654;-71
2023/06/06 01:29:30;;;;;;;;;;;;;;;9.51;100.00;99850.58;106321;1254;72672;-71
2023/06/06 01:32:05;;;;;;;38.10;19.50;;;;;;;9.41;100.00;99851.77;106318;1253;61086;-74
2023/06/06 01:34:35;;;;;;;32.60;18.90;;;;;;;9.36;100.00;99855.75;106371;1254;61320;-78
2023/06/06 01:37:26;;;;;;;36.40;21.00;;;;;;;9.44;100.00;99851.83;106362;1248;74512;-77
2023/06/06 01:39:53;;;;;;;37.30;19.20;;;;;;;9.44;100.00;99852.48;105707;1258;68766;-71
2023/06/06 01:42:20;;;;;;;28.90;18.20;;;;;;;9.54;100.00;99856.79;105665;1258;72478;-72
2023/06/06 01:44:47;;;;;;;38.80;20.50;;;;;;;9.46;100.00;99855.42;105692;1257;61743;-73
2023/06/06 01:47:14;;;;;;;34.60;18.50;;;;;;;9.43;100.00;99857.34;105628;1257;61360;-76
2023/06/06 01:49:41;;;;;;;42.80;18.10;;;;;;;9.37;100.00;99857.76;105622;1260;74696;-73
2023/06/06 01:52:08;;;;;;;46.00;20.70;;;;;;;9.38;100.00;99852.63;105774;1257;68379;-71
2023/06/06 01:54:36;;;;;;;57.30;26.50;;;;;;;9.58;100.00;99854.29;105645;1257;71104;-71
2023/06/06 01:57:03;;;;;;;;;;;;;;;9.81;100.00;99855.84;105639;1260;61902;-72
2023/06/06 01:59:31;;;;;;;60.00;31.00;;;;;;;9.43;100.00;99852.23;105697;1259;61382;-71
2023/06/06 02:01:59;;;;;;;43.70;23.80;;;;;;;10.04;100.00;99855.52;105346;1258;73265;-72
2023/06/06 02:04:26;;;;;;;47.30;25.20;;;;;;;9.40;100.00;99852.66;105690;1260;67822;-70
2023/06/06 02:06:52;;;;;;;46.10;24.20;;;;;;;9.36;100.00;99855.91;105651;1258;72501;-72
2023/06/06 02:09:20;;;;;;;44.30;22.60;;;;;;;9.41;100.00;99855.85;105654;1260;61339;-74
2023/06/06 02:11:46;;;;;;;42.20;20.50;;;;;;;9.43;100.00;99858.23;105332;1258;62240;-71
2023/06/06 02:14:15;;;;;;;41.50;20.30;;;;;;;9.48;100.00;99857.58;105422;1263;74542;-72
2023/06/06 02:16:45;;;;;;;40.30;19.60;;;;;;;9.73;100.00;99862.53;105788;1248;68393;-73
2023/06/06 02:19:12;;;;;;;63.00;25.80;;;;;;;10.11;100.00;99859.73;106099;1248;72524;-72
2023/06/06 02:21:38;;;;;;;73.20;33.00;;;;;;;9.56;100.00;99857.42;106050;1254;61310;-71
2023/06/06 02:24:06;;;;;;;59.40;27.00;;;;;;;9.53;100.00;99857.41;106306;1254;61327;-72
2023/06/06 02:26:35;;;;;;;40.20;21.80;;;;;;;9.57;100.00;99858.36;106325;1251;74493;-72
2023/06/06 02:29:03;;;;;;;45.90;22.00;;;;;;;9.92;100.00;99856.54;106155;1248;68308;-73
2023/06/06 02:31:29;;;;;;;47.00;22.00;;;;;;;10.95;100.00;99861.16;106073;1248;72361;-73
2023/06/06 02:33:56;;;;;;;56.50;23.10;;;;;;;11.52;100.00;99865.77;106125;1254;61694;-72
2023/06/06 02:36:25;;;;;;;49.80;22.00;;;;;;;11.80;100.00;99866.02;106081;1255;61321;-73
2023/06/06 02:38:52;;;;;;;61.80;24.10;;;;;;;11.92;100.00;99864.91;106342;1248;74550;-70
2023/06/06 02:41:19;;;;;;;56.90;27.80;;;;;;;11.86;100.00;99869.66;106314;1248;66883;-72
2023/06/06 02:43:46;;;;;;;56.10;24.70;;;;;;;11.68;100.00;99870.45;106291;1248;72548;-73
2023/06/06 02:46:13;;;;;;;62.60;30.60;;;;;;;11.22;100.00;99871.38;106096;1248;62204;-73
2023/06/06 02:48:40;;;;;;;66.50;29.70;;;;;;;11.35;100.00;99873.37;106308;1253;61342;-73
2023/06/06 02:51:07;;;;;;;60.20;29.40;;;;;;;11.33;100.00;99874.05;106322;1254;73386;-73
2023/06/06 02:53:34;;;;;;;66.30;28.10;;;;;;;11.62;100.00;99877.05;106368;1253;68652;-78
2023/06/06 02:56:01;;;;;;;80.50;28.20;;;;;;;11.72;100.00;99876.05;106338;1248;72571;-71
2023/06/06 02:58:29;;;;;;;67.90;27.60;;;;;;;12.15;100.00;99881.48;106174;1254;61809;-72
2023/06/06 03:00:56;;;;;;;106.70;27.30;;;;;;;12.19;100.00;99880.05;106037;1251;63059;-71
2023/06/06 03:03:24;;;;;;;70.60;26.00;;;;;;;12.35;100.00;99878.84;106182;1252;73167;-73
2023/06/06 03:05:52;;;;;;;49.50;21.90;;;;;;;12.58;100.00;99879.88;106063;1251;67299;-76
2023/06/06 03:08:19;;;;;;;40.70;20.70;;;;;;;12.72;100.00;99879.80;106076;1253;71542;-77
2023/06/06 03:10:46;;;;;;;45.60;22.70;;;;;;;12.89;100.00;99877.91;106316;1248;61978;-73
2023/06/06 03:13:16;;;;;;;54.10;22.80;;;;;;;13.18;100.00;99880.55;106275;1248;61314;-71
2023/06/06 03:15:46;;;;;;;52.20;22.60;;;;;;;13.51;100.00;99878.64;106304;1248;74430;-75
2023/06/06 03:18:20;;;;;;;80.20;23.50;;;;;;;13.78;100.00;99884.98;105972;1248;68394;-75
2023/06/06 03:20:53;;;;;;;33.90;17.00;;;;;;;13.96;100.00;99886.35;106282;1248;72571;-78
2023/06/06 03:23:22;;;;;;;27.50;14.40;;;;;;;14.12;100.00;99884.42;106355;1248;61679;-73
2023/06/06 03:25:49;;;;;;;40.20;14.40;;;;;;;14.35;100.00;99882.21;106141;1248;61152;-73
2023/06/06 03:28:19;;;;;;;41.10;14.20;;;;;;;14.75;100.00;99884.79;106301;1252;74221;-73
2023/06/06 03:30:46;;;;;;;32.30;13.90;;;;;;;15.01;100.00;99881.21;106385;1248;69005;-72
2023/06/06 03:33:15;;;;;;;22.60;11.90;;;;;;;15.14;100.00;99884.09;106353;1248;72436;-72
2023/06/06 03:35:43;;;;;;;;;;;;;;;15.28;100.00;99886.05;106349;1252;61297;-72
2023/06/06 03:38:09;;;;;;;17.00;9.50;;;;;;;15.95;100.00;99889.55;106373;1248;62443;-74
2023/06/06 03:40:37;;;;;;;17.00;9.70;;;;;;;15.55;100.00;99885.71;106077;1248;73455;-73
2023/06/06 03:43:03;;;;;;;19.50;10.40;;;;;;;15.31;100.00;99890.63;106107;1248;68427;-74
2023/06/06 03:45:30;;;;;;;18.80;8.20;;;;;;;15.20;100.00;99888.66;106311;1253;71188;-72
2023/06/06 03:47:57;;;;;;;13.60;7.50;;;;;;;15.43;100.00;99892.04;106264;1248;62286;-73
2023/06/06 03:50:24;;;;;;;14.40;7.30;;;;;;;15.85;100.00;99895.34;106011;1250;61314;-73
2023/06/06 03:52:53;;;;;;;13.90;7.60;;;;;;;16.34;100.00;99900.59;106324;1252;74201;-72
2023/06/06 03:55:22;;;;;;;18.40;7.40;;;;;;;16.04;100.00;99898.29;106339;1254;67182;-72
2023/06/06 03:57:50;;;;;;;10.80;6.10;;;;;;;16.50;100.00;99901.44;106284;1248;72512;-72
2023/06/06 04:00:17;;;;;;;10.40;6.00;;;;;;;16.92;97.94;99897.33;106388;1253;61218;-72
2023/06/06 04:02:48;;;;;;;14.10;6.70;;;;;;;17.06;94.25;99899.45;106293;1248;61333;-72
2023/06/06 04:05:16;;;;;;;11.20;6.50;;;;;;;17.25;92.27;99902.55;106342;1253;74323;-73
2023/06/06 04:07:43;;;;;;;15.70;6.10;;;;;;;17.68;88.94;99905.36;106284;1248;68447;-73
2023/06/06 04:10:10;;;;;;;11.70;6.30;;;;;;;18.14;83.51;99907.23;106292;1253;72341;-71
2023/06/06 04:12:39;;;;;;;12.90;6.30;;;;;;;18.13;82.12;99906.83;106303;1248;61207;-74
2023/06/06 04:15:10;;;;;;;12.30;6.40;;;;;;;18.72;77.23;99908.48;106329;1254;61375;-72
2023/06/06 04:17:37;;;;;;;14.70;5.70;;;;;;;18.81;74.50;99912.36;106313;1253;74547;-72
2023/06/06 04:20:05;;;;;;;14.20;5.90;;;;;;;18.65;72.73;99911.83;106297;1253;67092;-72
2023/06/06 04:22:31;;;;;;;;;;;;;;;18.52;74.16;99915.23;106340;1253;70179;-74
2023/06/06 04:24:58;;;;;;;13.20;5.50;;;;;;;18.44;73.91;99915.55;106313;1248;63583;-72
2023/06/06 04:27:26;;;;;;;9.70;5.80;;;;;;;18.27;78.04;99913.29;106325;1248;62479;-74
2023/06/06 04:29:57;;;;;;;18.30;6.10;;;;;;;18.79;74.98;99912.00;106119;1256;74698;-80
2023/06/06 04:32:24;;;;;;;10.70;5.60;;;;;;;19.60;66.00;99917.17;106161;1253;67255;-74
2023/06/06 04:34:51;;;;;;;18.00;7.30;;;;;;;20.08;62.50;99919.98;106131;1248;72318;-72
2023/06/06 04:37:20;;;;;;;10.00;5.00;;;;;;;20.40;58.81;99914.65;106367;1252;61209;-73
2023/06/06 04:39:52;;;;;;;18.70;6.40;;;;;;;20.19;57.74;99916.85;106309;1248;62368;-76
2023/06/06 04:42:24;;;;;;;15.50;5.90;;;;;;;19.90;60.12;99911.70;106348;1253;74214;-79
2023/06/06 04:44:52;;;;;;;12.90;5.50;;;;;;;19.67;61.90;99911.29;106176;1248;68710;-71
2023/06/06 04:47:22;;;;;;;17.20;6.30;;;;;;;19.69;62.42;99908.93;106294;1248;72338;-72
2023/06/06 04:49:48;;;;;;;12.30;5.20;;;;;;;20.02;63.95;99912.01;106315;1248;61267;-72
2023/06/06 04:52:16;;;;;;;13.70;5.50;;;;;;;20.23;63.67;99916.46;106301;1248;62175;-72
2023/06/06 04:54:45;;;;;;;19.20;6.00;;;;;;;20.27;62.82;99913.11;106357;1253;74328;-75
2023/06/06 04:57:15;;;;;;;17.30;6.00;;;;;;;20.57;59.42;99914.01;106373;1253;67655;-72
2023/06/06 04:59:47;;;;;;;15.80;5.30;;;;;;;20.62;58.20;99915.08;106392;1253;72647;-73
2023/06/06 05:02:14;;;;;;;8.70;5.30;;;;;;;20.91;55.10;99912.77;105781;1257;61228;-74
2023/06/06 05:04:40;;;;;;;15.20;5.10;;;;;;;21.04;51.94;99919.13;105796;1253;61541;-74
2023/06/06 05:07:07;;;;;;;11.60;4.20;;;;;;;20.96;51.09;99918.47;105980;1253;74485;-72
2023/06/06 05:09:37;;;;;;;7.40;4.10;;;;;;;20.47;52.71;99915.95;105990;1253;68559;-73
2023/06/06 05:12:05;;;;;;;8.90;4.30;;;;;;;20.87;51.04;99920.30;105955;1253;71329;-74
2023/06/06 05:14:32;;;;;;;10.50;4.40;;;;;;;21.76;48.28;99921.86;106006;1253;61404;-73
2023/06/06 05:16:59;;;;;;;8.10;4.40;;;;;;;22.08;48.18;99926.24;105997;1256;61231;-75
2023/06/06 05:19:26;;;;;;;7.90;4.70;;;;;;;22.51;47.06;99930.25;106032;1256;74470;-75
2023/06/06 05:21:52;;;;;;;8.80;4.80;;;;;;;23.33;44.91;99934.88;105998;1254;68481;-72
2023/06/06 05:24:19;;;;;;;12.70;4.70;;;;;;;24.18;42.34;99930.04;106034;1256;72446;-73
2023/06/06 05:26:46;;;;;;;10.50;3.70;;;;;;;24.82;40.75;99931.52;105992;1253;61458;-74
2023/06/06 05:29:12;;;;;;;13.40;3.70;;;;;;;25.41;38.91;99937.73;105959;1254;62414;-72
2023/06/06 05:31:40;;;;;;;;;;;;;;;24.67;38.98;99938.69;106016;1256;74280;-75
2023/06/06 05:34:07;;;;;;;7.70;3.20;;;;;;;24.22;38.68;99940.42;106368;1252;67555;-74
2023/06/06 05:36:33;;;;;;;6.30;3.10;;;;;;;24.29;38.58;99945.63;106327;1253;72584;-74
2023/06/06 05:39:00;;;;;;;8.90;4.10;;;;;;;23.66;39.14;99951.68;106461;1251;61333;-75
2023/06/06 05:41:27;;;;;;;15.90;5.40;;;;;;;23.20;41.58;99948.92;105885;1249;61258;-74
2023/06/06 05:43:54;;;;;;;13.10;5.00;;;;;;;22.61;43.60;99939.20;106276;1251;75030;-76
2023/06/06 05:46:21;;;;;;;10.50;4.70;;;;;;;22.57;43.92;99928.48;106269;1253;67375;-74
2023/06/06 05:48:47;;;;;;;8.50;3.90;;;;;;;23.09;43.07;99939.17;106254;1251;72370;-77
2023/06/06 05:51:15;;;;;;;10.40;3.80;;;;;;;23.36;40.82;99944.17;106270;1253;61294;-77
2023/06/06 05:53:45;;;;;;;11.00;3.80;;;;;;;23.90;40.07;99947.24;106252;1251;62269;-75
2023/06/06 05:56:13;;;;;;;11.60;4.20;;;;;;;23.44;40.99;99941.98;106209;1253;74659;-78
2023/06/06 05:58:40;;;;;;;7.70;3.40;;;;;;;23.00;41.86;99943.70;106276;1251;68373;-77
2023/06/06 06:01:08;;;;;;;11.00;3.80;;;;;;;22.33;43.55;99943.73;106093;1254;72325;-78
2023/06/06 06:03:36;;;;;;;25.70;6.10;;;;;;;21.43;45.83;99943.04;106313;1253;61218;-76
2023/06/06 06:06:04;;;;;;;13.60;4.90;;;;;;;21.59;47.05;99940.80;106283;1251;61266;-76
2023/06/06 06:08:34;;;;;;;11.60;4.70;;;;;;;22.21;46.08;99942.07;106257;1249;73173;-77
2023/06/06 06:11:01;;;;;;;11.50;5.00;;;;;;;22.39;45.55;99944.91;106400;1250;68425;-83
2023/06/06 06:13:29;;;;;;;9.10;4.40;;;;;;;22.86;44.36;99944.66;106259;1251;72653;-80
2023/06/06 06:15:57;;;;;;;8.70;4.50;;;;;;;23.40;43.05;99946.73;106339;1251;61326;-77
2023/06/06 06:18:24;;;;;;;10.40;4.30;;;;;;;23.93;41.53;99945.71;105830;1251;62071;-73
2023/06/06 06:20:51;;;;;;;7.50;3.70;;;;;;;24.62;40.20;99945.56;106318;1252;74593;-77
2023/06/06 06:23:18;;;;;;;11.20;3.50;;;;;;;25.27;39.37;99950.29;106301;1249;68353;-82
2023/06/06 06:25:46;;;;;;;5.50;3.20;;;;;;;25.76;38.55;99955.77;106095;1253;72614;-77
2023/06/06 06:28:20;;;;;;;;;;;;;;;25.66;36.43;99957.81;106134;1251;61203;-74
2023/06/06 06:30:47;;;;;;;6.80;3.60;;;;;;;24.77;36.65;99955.95;106307;1251;62376;-78
2023/06/06 06:33:14;;;;;;;6.20;2.70;;;;;;;24.40;38.32;99954.42;106237;1253;74340;-76
2023/06/06 06:35:44;;;;;;;7.10;3.60;;;;;;;24.74;38.09;99952.15;106279;1253;67657;-77
2023/06/06 06:38:11;;;;;;;8.80;3.20;;;;;;;24.75;37.16;99949.93;106318;1251;72369;-77
2023/06/06 06:40:38;;;;;;;8.90;3.40;;;;;;;24.70;37.67;99952.59;106320;1250;61350;-71
2023/06/06 06:43:05;;;;;;;8.10;3.40;;;;;;;24.33;38.67;99950.48;106234;1251;61263;-74
2023/06/06 06:45:53;;;;;;;4.50;3.00;;;;;;;24.64;38.22;99953.33;106273;1249;73488;-73
2023/06/06 06:48:21;;;;;;;6.40;2.70;;;;;;;24.87;38.23;99954.22;106230;1249;68741;-74
2023/06/06 06:50:48;;;;;;;6.20;3.40;;;;;;;25.05;37.94;99953.86;106255;1253;72477;-75
2023/06/06 06:53:16;;;;;;;3.50;2.60;;;;;;;25.22;37.25;99953.67;106259;1250;61212;-80
2023/06/06 06:55:45;;;;;;;9.10;2.70;;;;;;;25.47;37.02;99956.29;106309;1251;61330;-75
2023/06/06 06:58:24;;;;;;;4.70;2.80;;;;;;;25.64;36.85;99955.00;106284;1250;74529;-73
2023/06/06 07:00:53;;;;;;;4.50;2.80;;;;;;;25.77;36.32;99958.92;106299;1251;68423;-73
2023/06/06 07:03:20;;;;;;;4.60;2.50;;;;;;;25.63;36.08;99959.86;106547;1251;72507;-74
2023/06/06 07:05:47;;;;;;;7.80;2.60;;;;;;;26.64;34.66;99958.86;106737;1251;61123;-72
2023/06/06 07:08:14;;;;;;;6.80;2.70;;;;;;;27.03;33.39;99961.16;106466;1250;61230;-75
2023/06/06 07:10:42;;;;;;;5.70;2.50;;;;;;;27.08;33.65;99965.41;106265;1252;74512;-72
2023/06/06 07:13:09;;;;;;;6.80;2.80;;;;;;;27.02;33.49;99961.38;106232;1251;68243;-74
2023/06/06 07:15:36;;;;;;;7.40;3.10;;;;;;;26.16;34.77;99963.29;106359;1251;72380;-73
2023/06/06 07:18:04;;;;;;;;;;;;;;;26.14;35.47;99959.29;106367;1249;61249;-77
2023/06/06 07:20:31;;;;;;;4.10;2.10;;;;;;;26.44;34.49;99954.94;106282;1251;61352;-76
2023/06/06 07:22:59;;;;;;;6.20;2.30;;;;;;;26.98;33.19;99960.65;106287;1251;74565;-75
2023/06/06 07:25:25;;;;;;;3.40;2.10;;;;;;;26.25;33.39;99957.48;105981;1252;68436;-75
2023/06/06 07:27:53;;;;;;;4.10;2.30;;;;;;;26.25;33.82;99955.19;106183;1252;72475;-76
2023/06/06 07:30:20;;;;;;;;;;;;;;;26.21;32.76;99957.39;106336;1251;61299;-74
2023/06/06 07:32:47;;;;;;;5.70;2.00;;;;;;;26.12;30.20;99958.21;106294;1250;61250;-74
2023/06/06 07:35:19;;;;;;;3.60;1.90;;;;;;;26.21;31.30;99957.36;106336;1253;74364;-77
2023/06/06 07:37:46;;;;;;;3.80;2.10;;;;;;;26.23;30.97;99959.39;105899;1257;68876;-75
2023/06/06 07:40:13;;;;;;;2.70;1.80;;;;;;;26.12;31.44;99956.08;106286;1251;72842;-75
2023/06/06 07:42:40;;;;;;;5.00;1.90;;;;;;;26.54;30.62;99958.14;106290;1251;61343;-78
2023/06/06 07:45:09;;;;;;;3.10;2.00;;;;;;;26.56;29.17;99958.46;106373;1249;61266;-76
2023/06/06 07:47:38;;;;;;;3.20;2.20;;;;;;;26.44;29.18;99956.67;106108;1254;74300;-76
2023/06/06 07:50:05;;;;;;;4.20;1.90;;;;;;;26.42;28.77;99956.21;106231;1251;68637;-75
2023/06/06 07:52:32;;;;;;;;;;;;;;;26.65;28.65;99962.54;106414;1253;72647;-76
2023/06/06 07:54:59;;;;;;;6.00;2.00;;;;;;;27.12;27.72;99965.83;106251;1251;61409;-77
2023/06/06 07:57:27;;;;;;;6.20;1.90;;;;;;;27.49;27.73;99970.37;106285;1249;61327;-73
2023/06/06 07:59:53;;;;;;;;;;;;;;;27.85;27.08;99969.09;106302;1251;73858;-79
2023/06/06 08:02:20;;;;;;;2.90;1.80;;;;;;;27.85;26.99;99971.76;106337;1251;68436;-80
2023/06/06 08:04:47;;;;;;;4.60;1.90;;;;;;;28.14;27.13;99965.55;106279;1249;72445;-78
2023/06/06 08:07:14;;;;;;;4.40;2.20;;;;;;;28.15;26.82;99966.11;106265;1251;61302;-75
2023/06/06 08:09:42;;;;;;;5.80;2.10;;;;;;;28.51;27.05;99967.17;106232;1250;117352;-75
2023/06/06 08:12:09;;;;;;;;;;;;;;;28.00;26.86;99962.07;106315;1252;74521;-75
2023/06/06 08:14:37;;;;;;;3.50;2.10;;;;;;;26.73;28.73;99954.66;106026;1256;67260;-75
2023/06/06 08:17:04;;;;;;;10.20;2.60;;;;;;;26.82;28.81;99954.83;106081;1256;73106;-73
2023/06/06 08:19:32;;;;;;;6.90;2.30;;;;;;;27.33;28.18;99952.48;106166;1248;61220;-76
2023/06/06 08:21:59;;;;;;;4.30;1.90;;;;;;;27.74;27.93;99955.03;106381;1248;61234;-76
2023/06/06 08:24:25;;;;;;;7.30;2.40;;;;;;;27.90;27.49;99951.92;106346;1248;74513;-77
2023/06/06 08:26:53;;;;;;;6.50;2.20;;;;;;;28.50;26.81;99957.98;106323;1248;68919;-76
2023/06/06 08:29:19;;;;;;;;;;;;;;;28.20;27.23;99953.42;106349;1248;71230;-75
2023/06/06 08:31:46;;;;;;;4.90;2.20;;;;;;;28.23;27.05;99953.33;106312;1248;62273;-74
2023/06/06 08:34:13;;;;;;;3.10;2.10;;;;;;;27.85;26.59;99958.04;106145;1248;61233;-74
2023/06/06 08:36:40;;;;;;;5.20;2.20;;;;;;;27.76;26.73;99952.63;106279;1252;75106;-74
2023/06/06 08:39:07;;;;;;;3.10;2.20;;;;;;;27.43;26.42;99955.09;106346;1248;68724;-76
2023/06/06 08:41:34;;;;;;;;;;;;;;;27.04;26.48;99948.48;106171;1248;72250;-76
2023/06/06 08:44:02;;;;;;;3.60;2.60;;;;;;;27.02;26.75;99944.23;106287;1252;61257;-78
2023/06/06 08:46:32;;;;;;;3.50;2.20;;;;;;;27.25;26.77;99939.47;106312;1248;61256;-78
2023/06/06 08:49:04;;;;;;;5.30;2.40;;;;;;;26.90;27.07;99939.84;106331;1254;74355;-74
2023/06/06 08:51:31;;;;;;;3.90;2.30;;;;;;;26.54;27.32;99932.65;106102;1253;67240;-75
2023/06/06 08:53:59;;;;;;;7.50;3.00;;;;;;;26.54;27.62;99932.42;106067;1248;71427;-74
2023/06/06 08:56:26;;;;;;;3.70;2.00;;;;;;;26.88;27.84;99930.65;106150;1248;61695;-75
2023/06/06 08:58:53;;;;;;;4.00;2.10;;;;;;;26.95;27.37;99927.05;106356;1252;61241;-76
2023/06/06 09:01:20;;;;;;;4.70;2.60;;;;;;;27.74;26.81;99926.75;106332;1253;74715;-74
2023/06/06 09:03:53;;;;;;;8.90;2.40;;;;;;;27.95;26.25;99924.69;106341;1248;68511;-79
2023/06/06 09:06:21;;;;;;;6.80;2.40;;;;;;;27.70;25.65;99928.08;106324;1248;72719;-75
2023/06/06 09:08:48;;;;;;;6.90;2.60;;;;;;;27.50;26.05;99926.13;106164;1248;61340;-75
2023/06/06 09:11:15;;;;;;;;;;;;;;;26.60;26.36;99921.84;105867;1250;61335;-77
2023/06/06 09:13:42;;;;;;;8.20;2.70;;;;;;;25.77;27.90;99913.86;106356;1252;74530;-77
2023/06/06 09:16:09;;;;;;;3.70;2.00;;;;;;;25.79;27.65;99916.29;106298;1248;68366;-77
2023/06/06 09:18:38;;;;;;;4.20;2.00;;;;;;;25.74;27.62;99914.88;106307;1252;72615;-81
2023/06/06 09:21:05;;;;;;;2.50;2.20;;;;;;;25.80;27.83;99912.45;106340;1248;61339;-74
2023/06/06 09:23:32;;;;;;;20.50;13.50;;;;;;;25.67;28.26;99911.52;106319;1248;61259;-75
2023/06/06 09:25:59;;;;;;;3.10;2.70;;;;;;;25.87;27.80;99913.04;106347;1252;74586;-74
2023/06/06 09:28:39;;;;;;;4.10;2.40;;;;;;;26.11;26.92;99913.15;106403;1248;68737;-73
2023/06/06 09:31:23;;;;;;;6.40;2.50;;;;;;;26.51;26.48;99910.48;106311;1252;71095;-76
2023/06/06 09:33:51;;;;;;;3.00;2.40;;;;;;;26.70;26.31;99907.48;106345;1248;61299;-74
2023/06/06 09:36:23;;;;;;;4.00;2.60;;;;;;;27.20;26.74;99907.38;106113;1248;61273;-74
2023/06/06 09:38:51;;;;;;;9.60;2.20;;;;;;;27.40;26.73;99907.95;106048;1256;74859;-76
2023/06/06 09:41:18;;;;;;;4.90;2.50;;;;;;;27.45;26.10;99910.66;106371;1248;68835;-75
2023/06/06 09:43:48;;;;;;;3.50;2.10;;;;;;;28.49;25.58;99907.59;106125;1253;72654;-76
2023/06/06 09:46:16;;;;;;;5.00;2.10;;;;;;;28.13;25.40;99912.75;106233;1248;61250;-72
2023/06/06 09:48:56;;;;;;;3.10;2.20;;;;;;;27.71;25.71;99909.50;106392;1248;61262;-74
2023/06/06 09:51:23;;;;;;;8.90;2.90;;;;;;;27.48;26.37;99909.37;106136;1253;74993;-72
2023/06/06 09:53:51;;;;;;;4.90;2.30;;;;;;;27.07;26.88;99907.61;106162;1248;68924;-73
2023/06/06 09:56:22;;;;;;;7.70;3.40;;;;;;;26.92;27.73;99904.80;106153;1248;71410;-74
2023/06/06 09:58:55;;;;;;;13.50;3.30;;;;;;;26.77;27.53;99899.39;106312;1248;61231;-73
2023/06/06 10:01:27;;;;;;;4.60;3.10;;;;;;;26.63;27.78;99899.59;106175;1248;61270;-74
2023/06/06 10:03:56;;;;;;;4.40;2.70;;;;;;;27.16;28.43;99897.19;106363;1248;73264;-73
2023/06/06 10:06:24;;;;;;;7.80;2.50;;;;;;;28.21;25.88;99895.41;106337;1248;68553;-75
2023/06/06 10:08:53;;;;;;;8.60;2.60;;;;;;;27.86;25.83;99890.78;106286;1248;72344;-74
2023/06/06 10:11:21;;;;;;;6.40;2.40;;;;;;;27.68;26.14;99891.55;106188;1248;61319;-74
2023/06/06 10:13:49;;;;;;;5.70;2.50;;;;;;;27.86;26.38;99892.13;106327;1248;62372;-76
2023/06/06 10:16:16;;;;;;;7.80;2.60;;;;;;;27.68;26.16;99895.34;106182;1253;74532;-72
2023/06/06 10:18:46;;;;;;;17.40;5.10;;;;;;;27.57;25.96;99892.42;106358;1251;67495;-72
2023/06/06 10:21:15;;;;;;;5.00;3.00;;;;;;;27.94;26.14;99896.06;106342;1248;72588;-75
2023/06/06 10:23:45;;;;;;;10.70;4.40;;;;;;;29.52;24.43;99900.61;106320;1248;61333;-76
2023/06/06 10:26:32;;;;;;;2.80;2.30;;;;;;;30.17;23.77;99902.97;106066;1249;61409;-77
2023/06/06 10:28:59;;;;;;;;;;;;;;;28.77;25.02;99894.87;106183;1253;74545;-76
2023/06/06 10:31:30;;;;;;;17.20;11.50;;;;;;;27.94;25.63;99895.96;106347;1248;62222;-78
2023/06/06 10:34:00;;;;;;;8.70;3.70;;;;;;;27.75;26.28;99894.39;106126;1248;72597;-77
2023/06/06 10:36:36;;;;;;;5.00;2.90;;;;;;;27.44;26.98;99900.63;106377;1248;61308;-76
2023/06/06 10:39:20;;;;;;;3.10;2.50;;;;;;;28.24;26.23;99904.20;106193;1248;61317;-78
2023/06/06 10:41:54;;;;;;;4.80;2.80;;;;;;;27.79;27.33;99894.14;106112;1256;74328;-78
2023/06/06 10:44:53;;;;;;;6.00;2.60;;;;;;;28.17;27.37;99892.67;106410;1253;69030;-74
2023/06/06 10:47:27;;;;;;;5.20;2.70;;;;;;;28.01;26.56;99892.48;106314;1253;71178;-77
2023/06/06 10:50:07;;;;;;;6.40;2.70;;;;;;;27.95;26.53;99890.17;106136;1253;61230;-83
2023/06/06 10:52:48;;;;;;;6.10;2.60;;;;;;;28.44;27.13;99881.77;106313;1248;62225;-82
2023/06/06 10:55:23;;;;;;;5.70;2.30;;;;;;;29.17;25.80;99881.48;105989;1257;74263;-76
2023/06/06 10:58:04;;;;;;;8.90;3.00;;;;;;;28.64;26.53;99881.41;106351;1248;68487;-79
2023/06/06 11:00:32;;;;;;;9.10;3.50;;;;;;;29.24;26.27;99881.92;106152;1257;72549;-77
2023/06/06 11:03:06;;;;;;;6.20;3.60;;;;;;;28.54;26.83;99877.14;106085;1253;61230;-76
2023/06/06 11:06:00;;;;;;;7.50;4.20;;;;;;;28.25;26.90;99872.21;106349;1248;61320;-73
2023/06/06 11:08:41;;;;;;;4.00;2.60;;;;;;;27.86;27.41;99865.82;106331;1248;74419;-76
2023/06/06 11:11:23;;;;;;;7.00;3.60;;;;;;;27.21;28.07;99862.61;106326;1252;67462;-80
2023/06/06 11:14:06;;;;;;;9.70;4.60;;;;;;;27.45;28.08;99859.95;106300;1248;72744;-79
2023/06/06 11:16:38;;;;;;;4.20;2.60;;;;;;;27.63;27.91;99859.30;106223;1248;62243;-75
2023/06/06 11:19:09;;;;;;;3.80;2.20;;;;;;;27.45;27.96;99859.54;106360;1252;61138;-80
2023/06/06 11:21:36;;;;;;;4.00;2.50;;;;;;;27.18;27.93;99860.11;106000;1248;74957;-81
2023/06/06 11:24:04;;;;;;;3.50;2.70;;;;;;;26.85;27.83;99860.32;106126;1248;66502;-76
2023/06/06 11:26:32;;;;;;;;;;;;;;;26.43;28.21;99862.84;106392;1248;72771;-75